sensor_id;sensor_type;location;lat;lon;timestamp;P1;durP1;ratioP1;P2;durP2;ratioP2
61523;SDS011;47393;38.758;-9.164;2022-09-01T08:07:49;1.15;;;0.93;;
61523;SDS011;47393;38.758;-9.164;2022-09-01T08:11:09;0.70;;;0.70;;
61523;SDS011;47393;38.758;-9.164;2022-09-01T08:14:19;1.52;;;0.73;;
61523;SDS011;47393;38.758;-9.164;2022-09-01T08:40:31;6.53;;;0.90;;
61523;SDS011;47393;38.758;-9.164;2022-09-01T08:48:26;4.82;;;0.80;;
61523;SDS011;47393;38.758;-9.164;2022-09-01T08:57:25;9.82;;;1.05;;
61523;SDS011;47393;38.758;-9.164;2022-09-01T09:00:58;2.03;;;0.70;;
61523;SDS011;47393;38.758;-9.164;2022-09-01T09:03:56;1.85;;;0.70;;
61523;SDS011;47393;38.758;-9.164;2022-09-01T09:09:20;0.98;;;0.98;;
61523;SDS011;47393;38.758;-9.164;2022-09-01T09:17:46;2.15;;;0.80;;
61523;SDS011;47393;38.758;-9.164;2022-09-01T09:20:43;0.50;;;0.50;;
61523;SDS011;47393;38.758;-9.164;2022-09-01T09:23:35;0.55;;;0.55;;
61523;SDS011;47393;38.758;-9.164;2022-09-01T09:29:39;0.65;;;0.60;;
61523;SDS011;47393;38.758;-9.164;2022-09-01T09:42:16;0.40;;;0.40;;
61523;SDS011;47393;38.758;-9.164;2022-09-01T09:47:47;2.95;;;0.50;;
61523;SDS011;47393;38.758;-9.164;2022-09-01T09:50:11;3.67;;;0.50;;
61523;SDS011;47393;38.758;-9.164;2022-09-01T09:53:08;4.70;;;0.80;;
61523;SDS011;47393;38.758;-9.164;2022-09-01T09:55:58;1.67;;;1.40;;
61523;SDS011;47393;38.758;-9.164;2022-09-01T09:58:12;3.75;;;0.70;;
61523;SDS011;47393;38.758;-9.164;2022-09-01T10:01:02;2.53;;;0.50;;
61523;SDS011;47393;38.758;-9.164;2022-09-01T10:03:32;0.47;;;0.47;;
61523;SDS011;47393;38.758;-9.164;2022-09-01T10:06:38;1.00;;;0.60;;
61523;SDS011;47393;38.758;-9.164;2022-09-01T10:09:05;2.90;;;0.80;;
61523;SDS011;47393;38.758;-9.164;2022-09-01T10:11:27;4.03;;;0.60;;
61523;SDS011;47393;38.758;-9.164;2022-09-01T10:14:05;0.80;;;0.50;;
61523;SDS011;47393;38.758;-9.164;2022-09-01T10:23:40;5.18;;;1.15;;
61523;SDS011;47393;38.758;-9.164;2022-09-01T10:25:55;2.73;;;0.70;;
61523;SDS011;47393;38.758;-9.164;2022-09-01T10:28:16;2.00;;;0.70;;
61523;SDS011;47393;38.758;-9.164;2022-09-01T10:30:24;2.45;;;0.50;;
61523;SDS011;47393;38.758;-9.164;2022-09-01T10:35:01;0.57;;;0.47;;
61523;SDS011;47393;38.758;-9.164;2022-09-01T10:37:12;5.57;;;0.60;;
61523;SDS011;47393;38.758;-9.164;2022-09-01T10:39:18;0.63;;;0.45;;
61523;SDS011;47393;38.758;-9.164;2022-09-01T10:47:37;0.90;;;0.50;;
61523;SDS011;47393;38.758;-9.164;2022-09-01T10:51:51;2.22;;;0.85;;
61523;SDS011;47393;38.758;-9.164;2022-09-01T10:57:08;2.92;;;0.47;;
61523;SDS011;47393;38.758;-9.164;2022-09-01T10:59:45;5.15;;;0.68;;
61523;SDS011;47393;38.758;-9.164;2022-09-01T11:03:55;4.23;;;0.57;;
61523;SDS011;47393;38.758;-9.164;2022-09-01T11:06:01;0.80;;;0.60;;
61523;SDS011;47393;38.758;-9.164;2022-09-01T11:10:47;1.25;;;0.65;;
61523;SDS011;47393;38.758;-9.164;2022-09-01T11:15:40;1.65;;;0.52;;
61523;SDS011;47393;38.758;-9.164;2022-09-01T11:26:43;2.20;;;0.50;;
61523;SDS011;47393;38.758;-9.164;2022-09-01T11:28:46;0.43;;;0.43;;
61523;SDS011;47393;38.758;-9.164;2022-09-01T11:32:58;5.15;;;0.30;;
61523;SDS011;47393;38.758;-9.164;2022-09-01T11:37:49;2.60;;;0.40;;
61523;SDS011;47393;38.758;-9.164;2022-09-01T11:42:08;2.63;;;0.20;;
61523;SDS011;47393;38.758;-9.164;2022-09-01T11:47:25;2.80;;;0.47;;
61523;SDS011;47393;38.758;-9.164;2022-09-01T11:49:51;1.17;;;0.25;;
61523;SDS011;47393;38.758;-9.164;2022-09-01T11:52:24;2.35;;;0.30;;
61523;SDS011;47393;38.758;-9.164;2022-09-01T11:54:52;2.17;;;0.22;;
61523;SDS011;47393;38.758;-9.164;2022-09-01T11:56:56;0.17;;;0.17;;
61523;SDS011;47393;38.758;-9.164;2022-09-01T11:59:00;0.77;;;0.30;;
61523;SDS011;47393;38.758;-9.164;2022-09-01T12:01:12;10.35;;;0.57;;
61523;SDS011;47393;38.758;-9.164;2022-09-01T12:03:24;0.30;;;0.30;;
61523;SDS011;47393;38.758;-9.164;2022-09-01T12:05:41;0.40;;;0.40;;
61523;SDS011;47393;38.758;-9.164;2022-09-01T12:07:49;4.22;;;0.50;;
61523;SDS011;47393;38.758;-9.164;2022-09-01T12:10:33;1.45;;;0.40;;
61523;SDS011;47393;38.758;-9.164;2022-09-01T12:13:05;1.85;;;0.38;;
61523;SDS011;47393;38.758;-9.164;2022-09-01T12:19:00;0.82;;;0.20;;
61523;SDS011;47393;38.758;-9.164;2022-09-01T12:21:27;2.35;;;0.68;;
61523;SDS011;47393;38.758;-9.164;2022-09-01T12:24:43;7.00;;;0.68;;
61523;SDS011;47393;38.758;-9.164;2022-09-01T12:26:53;11.30;;;0.40;;
61523;SDS011;47393;38.758;-9.164;2022-09-01T12:28:59;0.30;;;0.30;;
61523;SDS011;47393;38.758;-9.164;2022-09-01T12:31:13;2.58;;;0.30;;
61523;SDS011;47393;38.758;-9.164;2022-09-01T12:33:25;1.40;;;0.50;;
61523;SDS011;47393;38.758;-9.164;2022-09-01T12:35:51;0.95;;;0.20;;
61523;SDS011;47393;38.758;-9.164;2022-09-01T12:40:45;9.75;;;0.45;;
61523;SDS011;47393;38.758;-9.164;2022-09-01T12:43:08;2.58;;;0.50;;
61523;SDS011;47393;38.758;-9.164;2022-09-01T12:47:57;0.70;;;0.30;;
61523;SDS011;47393;38.758;-9.164;2022-09-01T12:52:56;4.43;;;0.50;;
61523;SDS011;47393;38.758;-9.164;2022-09-01T12:55:25;1.27;;;0.47;;
61523;SDS011;47393;38.758;-9.164;2022-09-01T12:57:28;1.17;;;0.30;;
61523;SDS011;47393;38.758;-9.164;2022-09-01T13:00:05;4.93;;;0.50;;
61523;SDS011;47393;38.758;-9.164;2022-09-01T13:02:25;0.40;;;0.40;;
61523;SDS011;47393;38.758;-9.164;2022-09-01T13:04:47;3.10;;;0.60;;
61523;SDS011;47393;38.758;-9.164;2022-09-01T13:07:04;7.85;;;0.35;;
61523;SDS011;47393;38.758;-9.164;2022-09-01T13:09:58;6.07;;;0.60;;
61523;SDS011;47393;38.758;-9.164;2022-09-01T13:12:42;1.63;;;0.30;;
61523;SDS011;47393;38.758;-9.164;2022-09-01T13:15:28;4.07;;;0.20;;
61523;SDS011;47393;38.758;-9.164;2022-09-01T13:23:56;1.25;;;0.40;;
61523;SDS011;47393;38.758;-9.164;2022-09-01T13:26:35;1.27;;;0.30;;
61523;SDS011;47393;38.758;-9.164;2022-09-01T13:50:32;0.77;;;0.52;;
61523;SDS011;47393;38.758;-9.164;2022-09-01T13:52:47;6.03;;;0.60;;
61523;SDS011;47393;38.758;-9.164;2022-09-01T13:54:59;0.75;;;0.30;;
61523;SDS011;47393;38.758;-9.164;2022-09-01T13:57:23;4.50;;;0.52;;
61523;SDS011;47393;38.758;-9.164;2022-09-01T13:59:24;4.50;;;0.35;;
61523;SDS011;47393;38.758;-9.164;2022-09-01T14:01:46;10.00;;;0.70;;
61523;SDS011;47393;38.758;-9.164;2022-09-01T14:03:56;2.75;;;0.40;;
61523;SDS011;47393;38.758;-9.164;2022-09-01T14:06:17;0.40;;;0.40;;
61523;SDS011;47393;38.758;-9.164;2022-09-01T14:08:40;6.47;;;0.50;;
61523;SDS011;47393;38.758;-9.164;2022-09-01T14:10:45;0.75;;;0.60;;
61523;SDS011;47393;38.758;-9.164;2022-09-01T14:12:54;5.95;;;0.60;;
61523;SDS011;47393;38.758;-9.164;2022-09-01T14:15:10;4.85;;;0.60;;
61523;SDS011;47393;38.758;-9.164;2022-09-01T14:17:49;3.33;;;0.90;;
61523;SDS011;47393;38.758;-9.164;2022-09-01T14:20:36;2.05;;;0.40;;
61523;SDS011;47393;38.758;-9.164;2022-09-01T14:22:44;0.47;;;0.47;;
61523;SDS011;47393;38.758;-9.164;2022-09-01T14:24:49;3.40;;;0.60;;
61523;SDS011;47393;38.758;-9.164;2022-09-01T14:27:16;1.98;;;0.70;;
61523;SDS011;47393;38.758;-9.164;2022-09-01T14:29:29;1.08;;;0.63;;
61523;SDS011;47393;38.758;-9.164;2022-09-01T14:31:30;3.88;;;0.60;;
61523;SDS011;47393;38.758;-9.164;2022-09-01T14:33:47;1.33;;;0.88;;
61523;SDS011;47393;38.758;-9.164;2022-09-01T14:35:49;5.55;;;1.00;;
61523;SDS011;47393;38.758;-9.164;2022-09-01T14:37:51;3.75;;;0.60;;
61523;SDS011;47393;38.758;-9.164;2022-09-01T14:39:56;1.60;;;0.35;;
61523;SDS011;47393;38.758;-9.164;2022-09-01T14:43:58;3.03;;;0.40;;
61523;SDS011;47393;38.758;-9.164;2022-09-01T14:46:08;4.38;;;0.77;;
61523;SDS011;47393;38.758;-9.164;2022-09-01T14:48:14;1.80;;;0.60;;
61523;SDS011;47393;38.758;-9.164;2022-09-01T14:50:38;10.05;;;1.02;;
61523;SDS011;47393;38.758;-9.164;2022-09-01T14:52:41;4.68;;;0.60;;
61523;SDS011;47393;38.758;-9.164;2022-09-01T14:54:43;4.28;;;0.82;;
61523;SDS011;47393;38.758;-9.164;2022-09-01T14:56:45;6.50;;;0.75;;
61523;SDS011;47393;38.758;-9.164;2022-09-01T15:00:50;8.00;;;0.75;;
61523;SDS011;47393;38.758;-9.164;2022-09-01T15:02:55;1.20;;;0.68;;
61523;SDS011;47393;38.758;-9.164;2022-09-01T15:04:56;4.53;;;0.88;;
61523;SDS011;47393;38.758;-9.164;2022-09-01T15:06:57;1.75;;;0.77;;
61523;SDS011;47393;38.758;-9.164;2022-09-01T15:08:57;8.15;;;1.00;;
61523;SDS011;47393;38.758;-9.164;2022-09-01T15:10:58;4.55;;;0.70;;
61523;SDS011;47393;38.758;-9.164;2022-09-01T15:13:00;5.38;;;0.65;;
61523;SDS011;47393;38.758;-9.164;2022-09-01T15:15:02;1.33;;;0.65;;
61523;SDS011;47393;38.758;-9.164;2022-09-01T15:17:04;0.30;;;0.30;;
61523;SDS011;47393;38.758;-9.164;2022-09-01T15:19:06;2.78;;;0.70;;
61523;SDS011;47393;38.758;-9.164;2022-09-01T15:21:21;1.45;;;0.63;;
61523;SDS011;47393;38.758;-9.164;2022-09-01T15:23:26;4.13;;;0.90;;
61523;SDS011;47393;38.758;-9.164;2022-09-01T15:25:45;0.82;;;0.65;;
61523;SDS011;47393;38.758;-9.164;2022-09-01T15:27:59;5.88;;;0.77;;
61523;SDS011;47393;38.758;-9.164;2022-09-01T15:30:00;5.22;;;1.00;;
61523;SDS011;47393;38.758;-9.164;2022-09-01T15:32:43;10.85;;;0.60;;
61523;SDS011;47393;38.758;-9.164;2022-09-01T15:34:54;1.00;;;0.60;;
61523;SDS011;47393;38.758;-9.164;2022-09-01T15:37:10;3.28;;;0.70;;
61523;SDS011;47393;38.758;-9.164;2022-09-01T15:39:21;1.10;;;0.63;;
61523;SDS011;47393;38.758;-9.164;2022-09-01T15:41:51;1.25;;;0.60;;
61523;SDS011;47393;38.758;-9.164;2022-09-01T15:44:02;5.95;;;0.80;;
61523;SDS011;47393;38.758;-9.164;2022-09-01T15:46:05;4.50;;;0.52;;
61523;SDS011;47393;38.758;-9.164;2022-09-01T15:48:09;2.92;;;0.63;;
61523;SDS011;47393;38.758;-9.164;2022-09-01T15:52:21;8.40;;;1.25;;
61523;SDS011;47393;38.758;-9.164;2022-09-01T15:54:22;2.45;;;0.65;;
61523;SDS011;47393;38.758;-9.164;2022-09-01T15:58:27;2.83;;;0.85;;
61523;SDS011;47393;38.758;-9.164;2022-09-01T16:00:28;2.63;;;0.65;;
61523;SDS011;47393;38.758;-9.164;2022-09-01T16:02:53;1.88;;;0.70;;
61523;SDS011;47393;38.758;-9.164;2022-09-01T16:04:54;6.68;;;0.90;;
61523;SDS011;47393;38.758;-9.164;2022-09-01T16:07:04;2.20;;;0.50;;
61523;SDS011;47393;38.758;-9.164;2022-09-01T16:09:27;6.43;;;0.90;;
61523;SDS011;47393;38.758;-9.164;2022-09-01T16:11:32;4.05;;;0.80;;
61523;SDS011;47393;38.758;-9.164;2022-09-01T16:13:39;7.95;;;0.82;;
61523;SDS011;47393;38.758;-9.164;2022-09-01T16:16:11;1.70;;;0.80;;
61523;SDS011;47393;38.758;-9.164;2022-09-01T16:18:40;1.10;;;0.68;;
61523;SDS011;47393;38.758;-9.164;2022-09-01T16:21:07;0.77;;;0.40;;
61523;SDS011;47393;38.758;-9.164;2022-09-01T16:23:19;7.10;;;0.82;;
61523;SDS011;47393;38.758;-9.164;2022-09-01T16:25:31;2.13;;;0.70;;
61523;SDS011;47393;38.758;-9.164;2022-09-01T16:27:40;12.52;;;0.80;;
61523;SDS011;47393;38.758;-9.164;2022-09-01T16:29:57;3.67;;;0.88;;
61523;SDS011;47393;38.758;-9.164;2022-09-01T16:32:01;6.07;;;0.47;;
61523;SDS011;47393;38.758;-9.164;2022-09-01T16:34:12;2.15;;;0.70;;
61523;SDS011;47393;38.758;-9.164;2022-09-01T16:36:39;13.18;;;1.00;;
61523;SDS011;47393;38.758;-9.164;2022-09-01T16:38:52;0.40;;;0.40;;
61523;SDS011;47393;38.758;-9.164;2022-09-01T16:53:29;1.00;;;0.50;;
61523;SDS011;47393;38.758;-9.164;2022-09-01T17:00:22;0.70;;;0.57;;
61523;SDS011;47393;38.758;-9.164;2022-09-01T17:08:50;0.88;;;0.85;;
61523;SDS011;47393;38.758;-9.164;2022-09-01T17:21:39;0.60;;;0.60;;
61523;SDS011;47393;38.758;-9.164;2022-09-01T17:26:04;1.65;;;1.00;;
61523;SDS011;47393;38.758;-9.164;2022-09-01T17:28:22;3.47;;;0.80;;
61523;SDS011;47393;38.758;-9.164;2022-09-01T17:30:27;1.77;;;0.80;;
61523;SDS011;47393;38.758;-9.164;2022-09-01T17:34:58;1.40;;;0.70;;
61523;SDS011;47393;38.758;-9.164;2022-09-01T17:37:14;2.47;;;0.70;;
61523;SDS011;47393;38.758;-9.164;2022-09-01T17:39:31;5.90;;;0.90;;
61523;SDS011;47393;38.758;-9.164;2022-09-01T17:41:44;0.63;;;0.60;;
61523;SDS011;47393;38.758;-9.164;2022-09-01T17:43:54;2.40;;;0.95;;
61523;SDS011;47393;38.758;-9.164;2022-09-01T17:46:36;1.40;;;0.80;;
61523;SDS011;47393;38.758;-9.164;2022-09-01T17:58:17;1.05;;;0.88;;
61523;SDS011;47393;38.758;-9.164;2022-09-01T18:00:45;1.35;;;0.80;;
61523;SDS011;47393;38.758;-9.164;2022-09-01T18:03:05;3.35;;;0.93;;
61523;SDS011;47393;38.758;-9.164;2022-09-01T18:05:25;4.10;;;1.00;;
61523;SDS011;47393;38.758;-9.164;2022-09-01T18:09:36;3.60;;;0.90;;
61523;SDS011;47393;38.758;-9.164;2022-09-01T18:11:58;3.35;;;0.88;;
61523;SDS011;47393;38.758;-9.164;2022-09-01T18:14:20;1.00;;;0.90;;
61523;SDS011;47393;38.758;-9.164;2022-09-01T18:16:57;2.05;;;1.15;;
61523;SDS011;47393;38.758;-9.164;2022-09-01T18:19:07;1.52;;;0.75;;
61523;SDS011;47393;38.758;-9.164;2022-09-01T18:21:25;3.17;;;1.05;;
61523;SDS011;47393;38.758;-9.164;2022-09-01T18:23:31;1.55;;;0.90;;
61523;SDS011;47393;38.758;-9.164;2022-09-01T18:25:56;4.68;;;1.00;;
61523;SDS011;47393;38.758;-9.164;2022-09-01T18:28:04;2.67;;;1.23;;
61523;SDS011;47393;38.758;-9.164;2022-09-01T18:30:05;6.43;;;1.27;;
61523;SDS011;47393;38.758;-9.164;2022-09-01T18:32:10;1.10;;;0.80;;
61523;SDS011;47393;38.758;-9.164;2022-09-01T18:34:26;4.13;;;1.20;;
61523;SDS011;47393;38.758;-9.164;2022-09-01T18:43:46;2.47;;;1.50;;
61523;SDS011;47393;38.758;-9.164;2022-09-01T18:50:59;6.30;;;1.48;;
61523;SDS011;47393;38.758;-9.164;2022-09-01T18:53:06;4.35;;;1.88;;
61523;SDS011;47393;38.758;-9.164;2022-09-01T18:55:24;1.40;;;1.30;;
61523;SDS011;47393;38.758;-9.164;2022-09-01T18:57:37;1.48;;;1.10;;
61523;SDS011;47393;38.758;-9.164;2022-09-01T19:04:40;3.03;;;2.10;;
61523;SDS011;47393;38.758;-9.164;2022-09-01T19:06:57;3.40;;;1.85;;
61523;SDS011;47393;38.758;-9.164;2022-09-01T19:19:59;2.63;;;1.70;;
61523;SDS011;47393;38.758;-9.164;2022-09-01T19:22:16;2.25;;;2.05;;
61523;SDS011;47393;38.758;-9.164;2022-09-01T19:24:35;3.45;;;1.60;;
61523;SDS011;47393;38.758;-9.164;2022-09-01T19:26:47;3.17;;;1.80;;
61523;SDS011;47393;38.758;-9.164;2022-09-01T19:29:25;1.50;;;1.40;;
61523;SDS011;47393;38.758;-9.164;2022-09-01T19:31:38;6.25;;;1.90;;
61523;SDS011;47393;38.758;-9.164;2022-09-01T19:33:52;3.28;;;2.50;;
61523;SDS011;47393;38.758;-9.164;2022-09-01T19:35:59;4.60;;;2.13;;
61523;SDS011;47393;38.758;-9.164;2022-09-01T19:38:10;3.42;;;1.38;;
61523;SDS011;47393;38.758;-9.164;2022-09-01T19:40:22;1.77;;;1.30;;
61523;SDS011;47393;38.758;-9.164;2022-09-01T19:42:35;1.67;;;1.40;;
61523;SDS011;47393;38.758;-9.164;2022-09-01T19:47:20;5.60;;;2.40;;
61523;SDS011;47393;38.758;-9.164;2022-09-01T19:51:50;2.92;;;1.90;;
61523;SDS011;47393;38.758;-9.164;2022-09-01T19:54:13;2.22;;;1.30;;
61523;SDS011;47393;38.758;-9.164;2022-09-01T19:56:39;3.42;;;1.10;;
61523;SDS011;47393;38.758;-9.164;2022-09-01T20:01:33;4.10;;;1.90;;
61523;SDS011;47393;38.758;-9.164;2022-09-01T20:03:58;4.63;;;1.10;;
61523;SDS011;47393;38.758;-9.164;2022-09-01T20:17:55;2.38;;;1.25;;
61523;SDS011;47393;38.758;-9.164;2022-09-01T20:22:26;3.78;;;1.40;;
61523;SDS011;47393;38.758;-9.164;2022-09-01T20:24:46;4.18;;;1.55;;
61523;SDS011;47393;38.758;-9.164;2022-09-01T20:32:01;1.00;;;1.00;;
61523;SDS011;47393;38.758;-9.164;2022-09-01T20:34:26;1.67;;;0.98;;
61523;SDS011;47393;38.758;-9.164;2022-09-01T20:38:56;2.05;;;1.10;;
61523;SDS011;47393;38.758;-9.164;2022-09-01T20:44:28;4.00;;;0.93;;
61523;SDS011;47393;38.758;-9.164;2022-09-01T20:46:37;0.88;;;0.73;;
61523;SDS011;47393;38.758;-9.164;2022-09-01T20:48:38;2.13;;;1.02;;
61523;SDS011;47393;38.758;-9.164;2022-09-01T20:54:03;1.52;;;1.00;;
61523;SDS011;47393;38.758;-9.164;2022-09-01T20:56:04;1.38;;;1.00;;
61523;SDS011;47393;38.758;-9.164;2022-09-01T21:00:51;8.50;;;1.35;;
61523;SDS011;47393;38.758;-9.164;2022-09-01T21:08:27;0.82;;;0.65;;
61523;SDS011;47393;38.758;-9.164;2022-09-01T21:11:18;0.60;;;0.60;;
61523;SDS011;47393;38.758;-9.164;2022-09-01T21:20:43;3.10;;;0.82;;
61523;SDS011;47393;38.758;-9.164;2022-09-01T21:22:49;1.40;;;1.17;;
61523;SDS011;47393;38.758;-9.164;2022-09-01T21:24:50;1.10;;;0.88;;
61523;SDS011;47393;38.758;-9.164;2022-09-01T21:26:54;3.95;;;0.90;;
61523;SDS011;47393;38.758;-9.164;2022-09-01T21:28:57;1.50;;;0.70;;
61523;SDS011;47393;38.758;-9.164;2022-09-01T21:31:05;3.00;;;1.00;;
61523;SDS011;47393;38.758;-9.164;2022-09-01T21:35:11;1.30;;;1.00;;
61523;SDS011;47393;38.758;-9.164;2022-09-01T21:37:15;1.83;;;0.88;;
61523;SDS011;47393;38.758;-9.164;2022-09-01T21:39:17;1.58;;;0.80;;
61523;SDS011;47393;38.758;-9.164;2022-09-01T21:41:20;1.27;;;1.00;;
61523;SDS011;47393;38.758;-9.164;2022-09-01T21:43:30;3.08;;;1.10;;
61523;SDS011;47393;38.758;-9.164;2022-09-01T21:45:34;0.77;;;0.75;;
61523;SDS011;47393;38.758;-9.164;2022-09-01T21:47:37;2.22;;;0.88;;
61523;SDS011;47393;38.758;-9.164;2022-09-01T21:49:40;1.77;;;1.10;;
61523;SDS011;47393;38.758;-9.164;2022-09-01T21:51:41;0.77;;;0.77;;
61523;SDS011;47393;38.758;-9.164;2022-09-01T21:53:42;3.13;;;0.93;;
61523;SDS011;47393;38.758;-9.164;2022-09-01T21:55:43;5.93;;;0.70;;
61523;SDS011;47393;38.758;-9.164;2022-09-01T21:57:52;2.00;;;0.77;;
61523;SDS011;47393;38.758;-9.164;2022-09-01T21:59:55;3.17;;;0.57;;
61523;SDS011;47393;38.758;-9.164;2022-09-01T22:01:59;1.63;;;0.68;;
61523;SDS011;47393;38.758;-9.164;2022-09-01T22:04:00;4.07;;;0.70;;
61523;SDS011;47393;38.758;-9.164;2022-09-01T22:06:02;0.82;;;0.82;;
61523;SDS011;47393;38.758;-9.164;2022-09-01T22:08:03;3.50;;;0.68;;
61523;SDS011;47393;38.758;-9.164;2022-09-01T22:10:12;2.15;;;1.10;;
61523;SDS011;47393;38.758;-9.164;2022-09-01T22:12:17;1.85;;;0.88;;
61523;SDS011;47393;38.758;-9.164;2022-09-01T22:14:21;4.95;;;1.05;;
61523;SDS011;47393;38.758;-9.164;2022-09-01T22:16:23;1.30;;;0.70;;
61523;SDS011;47393;38.758;-9.164;2022-09-01T22:18:30;3.78;;;0.80;;
61523;SDS011;47393;38.758;-9.164;2022-09-01T22:20:31;4.18;;;0.68;;
61523;SDS011;47393;38.758;-9.164;2022-09-01T22:22:32;1.02;;;0.60;;
61523;SDS011;47393;38.758;-9.164;2022-09-01T22:24:33;1.60;;;0.68;;
61523;SDS011;47393;38.758;-9.164;2022-09-01T22:26:34;1.23;;;0.60;;
61523;SDS011;47393;38.758;-9.164;2022-09-01T22:28:35;2.03;;;0.70;;
61523;SDS011;47393;38.758;-9.164;2022-09-01T22:30:41;1.13;;;0.60;;
61523;SDS011;47393;38.758;-9.164;2022-09-01T22:32:44;0.88;;;0.77;;
61523;SDS011;47393;38.758;-9.164;2022-09-01T22:34:45;5.43;;;0.65;;
61523;SDS011;47393;38.758;-9.164;2022-09-01T22:36:49;4.65;;;0.85;;
61523;SDS011;47393;38.758;-9.164;2022-09-01T22:38:50;1.10;;;0.70;;
61523;SDS011;47393;38.758;-9.164;2022-09-01T22:40:52;1.75;;;0.50;;
61523;SDS011;47393;38.758;-9.164;2022-09-01T22:44:56;2.55;;;0.70;;
61523;SDS011;47393;38.758;-9.164;2022-09-01T22:46:56;2.08;;;1.00;;
61523;SDS011;47393;38.758;-9.164;2022-09-01T22:48:58;1.42;;;0.88;;
61523;SDS011;47393;38.758;-9.164;2022-09-01T22:51:02;1.08;;;0.75;;
61523;SDS011;47393;38.758;-9.164;2022-09-01T22:53:08;1.38;;;0.68;;
61523;SDS011;47393;38.758;-9.164;2022-09-01T22:55:10;1.75;;;0.68;;
61523;SDS011;47393;38.758;-9.164;2022-09-01T22:57:11;1.23;;;0.70;;
61523;SDS011;47393;38.758;-9.164;2022-09-01T22:59:13;2.05;;;0.85;;
61523;SDS011;47393;38.758;-9.164;2022-09-01T23:01:15;2.53;;;0.90;;
61523;SDS011;47393;38.758;-9.164;2022-09-01T23:03:18;0.85;;;0.82;;
61523;SDS011;47393;38.758;-9.164;2022-09-01T23:05:20;0.63;;;0.60;;
61523;SDS011;47393;38.758;-9.164;2022-09-01T23:07:35;3.20;;;0.77;;
61523;SDS011;47393;38.758;-9.164;2022-09-01T23:09:49;0.50;;;0.50;;
61523;SDS011;47393;38.758;-9.164;2022-09-01T23:11:53;0.90;;;0.50;;
61523;SDS011;47393;38.758;-9.164;2022-09-01T23:13:55;3.67;;;0.95;;
61523;SDS011;47393;38.758;-9.164;2022-09-01T23:16:20;1.70;;;0.93;;
61523;SDS011;47393;38.758;-9.164;2022-09-01T23:18:25;2.70;;;0.90;;
61523;SDS011;47393;38.758;-9.164;2022-09-01T23:20:29;2.03;;;1.02;;
61523;SDS011;47393;38.758;-9.164;2022-09-01T23:22:30;2.65;;;0.70;;
61523;SDS011;47393;38.758;-9.164;2022-09-01T23:24:31;2.92;;;0.73;;
61523;SDS011;47393;38.758;-9.164;2022-09-01T23:26:33;4.95;;;0.88;;
61523;SDS011;47393;38.758;-9.164;2022-09-01T23:28:34;2.30;;;0.80;;
61523;SDS011;47393;38.758;-9.164;2022-09-01T23:30:36;2.85;;;0.77;;
61523;SDS011;47393;38.758;-9.164;2022-09-01T23:32:37;1.55;;;0.85;;
61523;SDS011;47393;38.758;-9.164;2022-09-01T23:34:38;1.38;;;0.80;;
61523;SDS011;47393;38.758;-9.164;2022-09-01T23:36:39;2.15;;;0.70;;
61523;SDS011;47393;38.758;-9.164;2022-09-01T23:38:45;2.42;;;0.80;;
61523;SDS011;47393;38.758;-9.164;2022-09-01T23:41:21;3.42;;;0.80;;
61523;SDS011;47393;38.758;-9.164;2022-09-01T23:43:25;3.72;;;0.70;;
61523;SDS011;47393;38.758;-9.164;2022-09-01T23:45:26;1.75;;;0.80;;
61523;SDS011;47393;38.758;-9.164;2022-09-01T23:47:30;3.33;;;0.90;;
61523;SDS011;47393;38.758;-9.164;2022-09-01T23:49:52;1.95;;;0.85;;
61523;SDS011;47393;38.758;-9.164;2022-09-01T23:51:53;4.07;;;0.75;;
61523;SDS011;47393;38.758;-9.164;2022-09-01T23:55:59;2.60;;;0.70;;
61523;SDS011;47393;38.758;-9.164;2022-09-01T23:58:01;6.50;;;0.97;;
